createdAt,value
2023-05-11T00:00:37.091Z,97949.22
2023-05-11T00:03:03.850Z,97970.84
2023-05-11T00:05:30.461Z,97971.16
2023-05-11T00:07:56.972Z,97961.53
2023-05-11T00:10:23.547Z,97962.59
2023-05-11T00:12:49.988Z,97961.63
2023-05-11T00:15:16.485Z,97964.03
2023-05-11T00:17:42.911Z,97960.47
2023-05-11T00:20:09.785Z,97970.25
2023-05-11T00:22:36.343Z,97971.03
2023-05-11T00:25:03.093Z,97968.72
2023-05-11T00:27:29.610Z,97964.75
2023-05-11T00:29:56.676Z,97966.25
2023-05-11T00:32:23.153Z,97959.91
2023-05-11T00:34:49.697Z,97924.31
2023-05-11T00:37:16.227Z,97963.44
2023-05-11T00:39:42.721Z,97966.16
2023-05-11T00:42:10.752Z,97957.09
2023-05-11T00:44:37.281Z,97954.94
2023-05-11T00:47:04.663Z,97956.13
2023-05-11T00:49:31.314Z,97961.00
2023-05-11T00:51:57.860Z,97960.28
2023-05-11T00:54:24.748Z,97960.00
2023-05-11T00:56:51.774Z,97953.09
2023-05-11T00:59:18.735Z,97959.66
2023-05-11T01:01:45.573Z,97961.16
2023-05-11T01:04:12.876Z,97959.34
2023-05-11T01:07:02.267Z,97967.72
2023-05-11T01:09:44.928Z,97948.94
2023-05-11T01:12:26.142Z,97953.66
2023-05-11T01:15:27.511Z,97972.81
2023-05-11T01:18:06.178Z,97972.22
2023-05-11T01:20:32.945Z,97970.53
2023-05-11T01:23:08.223Z,97964.03
2023-05-11T01:26:19.363Z,97960.91
2023-05-11T01:29:25.393Z,97965.44
2023-05-11T01:31:55.460Z,97960.50
2023-05-11T01:34:25.552Z,97963.25
2023-05-11T01:36:59.281Z,97958.81
2023-05-11T01:39:32.630Z,97926.00
2023-05-11T01:42:07.576Z,97967.25
2023-05-11T01:44:36.370Z,97962.19
2023-05-11T01:47:04.345Z,97967.56
2023-05-11T01:49:35.661Z,97928.03
2023-05-11T01:52:03.597Z,97964.69
2023-05-11T01:54:31.374Z,97921.09
2023-05-11T01:57:00.367Z,97968.75
2023-05-11T01:59:28.133Z,97963.66
2023-05-11T02:01:55.037Z,97949.22
2023-05-11T02:04:23.461Z,97960.63
2023-05-11T02:06:52.340Z,97966.47
2023-05-11T02:09:20.961Z,97963.09
2023-05-11T02:11:49.146Z,97968.16
2023-05-11T02:14:20.314Z,97936.47
2023-05-11T02:16:50.055Z,97970.63
2023-05-11T02:19:18.236Z,97970.25
2023-05-11T02:21:46.540Z,97973.97
2023-05-11T02:24:14.375Z,97971.19
2023-05-11T02:26:41.323Z,97966.31
2023-05-11T02:29:07.810Z,97975.69
2023-05-11T02:31:42.770Z,97971.22
2023-05-11T02:34:23.566Z,97959.06
2023-05-11T02:36:53.785Z,97972.41
2023-05-11T02:39:22.310Z,97963.59
2023-05-11T02:41:56.266Z,97960.25
2023-05-11T02:44:27.098Z,97862.94
2023-05-11T02:46:55.820Z,97967.06
2023-05-11T02:49:25.391Z,97962.63
2023-05-11T02:51:54.885Z,97964.03
2023-05-11T02:54:23.728Z,97962.19
2023-05-11T02:56:53.123Z,97948.41
2023-05-11T02:59:20.885Z,97964.56
2023-05-11T03:01:48.135Z,97947.66
2023-05-11T03:04:14.975Z,97968.53
2023-05-11T03:06:41.748Z,97968.88
2023-05-11T03:09:10.306Z,97977.81
2023-05-11T03:11:42.698Z,97969.19
2023-05-11T03:14:09.376Z,97971.16
2023-05-11T03:16:37.799Z,97967.91
2023-05-11T03:19:07.648Z,97969.50
2023-05-11T03:21:36.697Z,97971.50
2023-05-11T03:24:06.264Z,97973.38
2023-05-11T03:26:34.272Z,97963.59
2023-05-11T03:29:02.472Z,97971.16
2023-05-11T03:31:29.405Z,97967.00
2023-05-11T03:33:58.556Z,97970.09
2023-05-11T03:36:27.101Z,97966.28
2023-05-11T03:38:58.748Z,97963.19
2023-05-11T03:41:34.060Z,97967.16
2023-05-11T03:44:05.097Z,97957.63
2023-05-11T03:46:35.773Z,97965.38
2023-05-11T03:49:04.497Z,97957.09
2023-05-11T03:51:32.813Z,97952.00
2023-05-11T03:53:59.939Z,97948.47
2023-05-11T03:56:26.812Z,97947.22
2023-05-11T03:58:53.847Z,97950.47
2023-05-11T04:01:22.731Z,97957.84
2023-05-11T04:03:53.278Z,97847.00
2023-05-11T04:06:20.917Z,97942.47
2023-05-11T04:08:54.526Z,97950.38
2023-05-11T04:11:22.109Z,97947.94
2023-05-11T04:13:48.512Z,97952.38
2023-05-11T04:16:14.965Z,97947.50
2023-05-11T04:18:41.563Z,97949.47
2023-05-11T04:21:08.025Z,97952.22
2023-05-11T04:23:34.452Z,97843.03
2023-05-11T04:26:01.008Z,97942.09
2023-05-11T04:28:30.233Z,97952.13
2023-05-11T04:30:57.810Z,97936.94
2023-05-11T04:33:24.528Z,97961.44
2023-05-11T04:35:55.624Z,97962.28
2023-05-11T04:38:24.313Z,97957.88
2023-05-11T04:40:50.882Z,97958.09
2023-05-11T04:43:20.486Z,97957.53
2023-05-11T04:45:50.997Z,97966.44
2023-05-11T04:48:22.645Z,97969.72
2023-05-11T04:50:49.091Z,97970.50
2023-05-11T04:53:17.866Z,97970.50
2023-05-11T04:55:46.057Z,97979.91
2023-05-11T04:58:12.548Z,97972.28
2023-05-11T05:00:39.082Z,97960.31
2023-05-11T05:03:05.568Z,97968.72
2023-05-11T05:05:32.531Z,97967.91
2023-05-11T05:07:58.965Z,97973.56
2023-05-11T05:10:25.493Z,97978.00
2023-05-11T05:12:51.893Z,97977.78
2023-05-11T05:15:18.390Z,97974.53
2023-05-11T05:17:45.163Z,97985.91
2023-05-11T05:20:12.622Z,97958.06
2023-05-11T05:22:39.124Z,97987.78
2023-05-11T05:25:06.236Z,97983.28
2023-05-11T05:27:34.764Z,97976.88
2023-05-11T05:30:04.475Z,97978.91
2023-05-11T05:32:31.121Z,97987.81
2023-05-11T05:34:57.582Z,97980.19
2023-05-11T05:37:24.175Z,97976.47
2023-05-11T05:39:50.641Z,97990.41
2023-05-11T05:42:17.118Z,97983.22
2023-05-11T05:44:44.386Z,97990.41
2023-05-11T05:47:11.266Z,97983.41
2023-05-11T05:49:37.928Z,97989.25
2023-05-11T05:52:06.305Z,97987.53
2023-05-11T05:54:32.830Z,97987.03
2023-05-11T05:56:59.252Z,97986.13
2023-05-11T05:59:26.753Z,97969.06
2023-05-11T06:01:56.327Z,97989.81
2023-05-11T06:04:24.321Z,98001.44
2023-05-11T06:06:50.907Z,98003.66
2023-05-11T06:09:17.797Z,97987.19
2023-05-11T06:11:44.189Z,97998.44
2023-05-11T06:14:10.968Z,98005.16
2023-05-11T06:16:37.780Z,98008.31
2023-05-11T06:19:04.407Z,97979.84
2023-05-11T06:21:31.384Z,98014.72
2023-05-11T06:23:58.392Z,98012.16
2023-05-11T06:26:28.530Z,97992.78
2023-05-11T06:28:55.538Z,97998.34
2023-05-11T06:31:24.278Z,97996.59
2023-05-11T06:33:52.083Z,98000.44
2023-05-11T06:36:22.864Z,97999.63
2023-05-11T06:38:49.388Z,98006.00
2023-05-11T06:41:15.805Z,97991.38
2023-05-11T06:43:42.346Z,98004.97
2023-05-11T06:46:19.814Z,98005.53
2023-05-11T06:48:46.364Z,98006.00
2023-05-11T06:51:12.869Z,97999.38
2023-05-11T06:53:39.319Z,97999.13
2023-05-11T06:56:06.497Z,97997.94
2023-05-11T06:58:32.962Z,98002.34
2023-05-11T07:00:59.439Z,97995.28
2023-05-11T07:03:25.975Z,97997.03
2023-05-11T07:05:52.380Z,98001.44
2023-05-11T07:08:18.834Z,98001.66
2023-05-11T07:10:45.299Z,97997.00
2023-05-11T07:13:11.848Z,97991.63
2023-05-11T07:15:38.242Z,98002.53
2023-05-11T07:18:04.852Z,97999.47
2023-05-11T07:20:32.127Z,98005.72
2023-05-11T07:22:59.271Z,97995.00
2023-05-11T07:25:25.952Z,98002.66
2023-05-11T07:27:52.634Z,97999.84
2023-05-11T07:30:19.212Z,97996.22
2023-05-11T07:32:46.594Z,97996.47
2023-05-11T07:35:13.200Z,97999.81
2023-05-11T07:37:39.657Z,98003.13
2023-05-11T07:40:06.926Z,98004.81
2023-05-11T07:42:33.428Z,98006.63
2023-05-11T07:44:59.889Z,97974.91
2023-05-11T07:47:26.965Z,97989.91
2023-05-11T07:49:53.607Z,98006.69
2023-05-11T07:52:20.034Z,97992.91
2023-05-11T07:54:46.454Z,97994.03
2023-05-11T07:57:13.947Z,97989.84
2023-05-11T07:59:41.017Z,98001.06
2023-05-11T08:02:11.458Z,97992.19
2023-05-11T08:04:39.532Z,97992.19
2023-05-11T08:07:05.952Z,97994.00
2023-05-11T08:09:32.542Z,97998.84
2023-05-11T08:12:01.605Z,97991.06
2023-05-11T08:14:28.227Z,97996.81
2023-05-11T08:16:54.739Z,97990.38
2023-05-11T08:19:21.408Z,97974.44
2023-05-11T08:21:47.927Z,97960.72
2023-05-11T08:24:14.434Z,97983.22
2023-05-11T08:26:40.892Z,97992.06
2023-05-11T08:29:07.695Z,97999.16
2023-05-11T08:31:34.232Z,97994.38
2023-05-11T08:34:00.891Z,97986.94
2023-05-11T08:36:27.377Z,97994.00
2023-05-11T08:38:57.276Z,97993.66
2023-05-11T08:41:25.956Z,97991.56
2023-05-11T08:43:52.667Z,98001.34
2023-05-11T08:46:23.757Z,98001.44
2023-05-11T08:48:50.659Z,98004.69
2023-05-11T08:51:17.145Z,97980.31
2023-05-11T08:53:43.716Z,97995.00
2023-05-11T08:56:11.775Z,97975.25
2023-05-11T08:58:39.816Z,97948.84
2023-05-11T09:01:07.372Z,97996.34
2023-05-11T09:03:37.003Z,97996.75
2023-05-11T09:06:07.126Z,97995.53
2023-05-11T09:08:38.171Z,97988.03
2023-05-11T09:11:06.081Z,97995.03
2023-05-11T09:13:33.081Z,97985.69
2023-05-11T09:15:59.678Z,97992.53
2023-05-11T09:18:26.860Z,97998.66
2023-05-11T09:20:53.598Z,97995.19
2023-05-11T09:23:26.037Z,97998.66
2023-05-11T09:25:52.804Z,97993.31
2023-05-11T09:28:25.696Z,97999.25
2023-05-11T09:30:53.467Z,97905.50
2023-05-11T09:33:25.724Z,97999.53
2023-05-11T09:35:53.160Z,97993.06
2023-05-11T09:38:20.667Z,97996.09
2023-05-11T09:40:52.145Z,97998.53
2023-05-11T09:43:27.285Z,97992.47
2023-05-11T09:45:56.188Z,97995.41
2023-05-11T09:48:29.051Z,97991.66
2023-05-11T09:51:01.404Z,97990.41
2023-05-11T09:53:35.743Z,97985.09
2023-05-11T09:56:02.264Z,97985.31
2023-05-11T09:58:45.744Z,97989.34
2023-05-11T10:01:12.260Z,97988.56
2023-05-11T10:03:49.134Z,97988.34
2023-05-11T10:06:17.532Z,97991.09
2023-05-11T10:08:45.981Z,97985.97
2023-05-11T10:11:12.484Z,97994.34
2023-05-11T10:13:39.766Z,97990.06
2023-05-11T10:16:08.685Z,97990.38
2023-05-11T10:18:36.809Z,97993.06
2023-05-11T10:21:05.630Z,97984.19
2023-05-11T10:23:33.718Z,97982.94
2023-05-11T10:26:00.966Z,97984.06
2023-05-11T10:30:54.852Z,97982.81
2023-05-11T10:33:21.628Z,97975.56
2023-05-11T10:35:48.868Z,97959.88
2023-05-11T10:38:16.308Z,97971.66
2023-05-11T10:40:45.674Z,97968.53
2023-05-11T10:43:34.276Z,97967.28
2023-05-11T10:46:06.524Z,97969.47
2023-05-11T10:48:50.650Z,97968.81
2023-05-11T10:51:50.832Z,97964.00
2023-05-11T10:54:33.372Z,97960.75
2023-05-11T10:57:33.872Z,97966.19
2023-05-11T11:00:31.805Z,97968.41
2023-05-11T11:03:00.063Z,97960.41
2023-05-11T11:05:34.958Z,97966.78
2023-05-11T11:08:05.854Z,97970.84
2023-05-11T11:10:34.784Z,97956.09
2023-05-11T11:13:12.023Z,97958.81
2023-05-11T11:16:02.785Z,97960.44
2023-05-11T11:18:31.320Z,97959.94
2023-05-11T11:20:58.973Z,97962.09
2023-05-11T11:23:41.402Z,97957.53
2023-05-11T11:26:10.184Z,97953.94
2023-05-11T11:28:57.109Z,97956.09
2023-05-11T11:31:26.158Z,97950.75
2023-05-11T11:33:53.535Z,97940.25
2023-05-11T11:36:54.900Z,97947.00
2023-05-11T11:39:22.331Z,97934.38
2023-05-11T11:42:04.611Z,97944.38
2023-05-11T11:44:31.379Z,97941.69
2023-05-11T11:47:16.959Z,97943.84
2023-05-11T11:49:45.625Z,97938.47
2023-05-11T11:52:35.926Z,97930.38
2023-05-11T11:55:04.053Z,97929.56
2023-05-11T11:57:32.445Z,97927.41
2023-05-11T12:00:13.048Z,97915.28
2023-05-11T12:02:44.790Z,97915.28
2023-05-11T12:05:22.949Z,97921.22
2023-05-11T12:07:51.487Z,97927.69
2023-05-11T12:10:20.309Z,97914.75
2023-05-11T12:12:48.635Z,97904.78
2023-05-11T12:15:25.517Z,97914.47
2023-05-11T12:17:52.134Z,97906.66
2023-05-11T12:20:20.041Z,97910.13
2023-05-11T12:22:48.941Z,97905.50
2023-05-11T12:25:19.476Z,97904.88
2023-05-11T12:27:55.280Z,97900.22
2023-05-11T12:30:27.145Z,97900.94
2023-05-11T12:35:28.868Z,97896.31
2023-05-11T12:37:57.345Z,97878.38
2023-05-11T12:40:25.119Z,97821.41
2023-05-11T12:42:56.686Z,97884.81
2023-05-11T12:45:24.676Z,97892.63
2023-05-11T12:47:56.222Z,97885.91
2023-05-11T12:50:23.095Z,97874.34
2023-05-11T12:52:50.331Z,97885.09
2023-05-11T12:55:30.519Z,97878.34
2023-05-11T12:58:12.941Z,97878.00
2023-05-11T13:00:56.437Z,97875.06
2023-05-11T13:03:26.068Z,97872.97
2023-05-11T13:06:11.855Z,97877.78
2023-05-11T13:08:44.377Z,97872.34
2023-05-11T13:11:25.665Z,97850.88
2023-05-11T13:13:57.000Z,97862.19
2023-05-11T13:16:26.926Z,97856.25
2023-05-11T13:18:59.962Z,97859.66
2023-05-11T13:21:26.694Z,97869.09
2023-05-11T13:23:54.409Z,97863.13
2023-05-11T13:26:25.510Z,97809.63
2023-05-11T13:29:08.729Z,97818.50
2023-05-11T13:31:51.965Z,97858.28
2023-05-11T13:34:19.854Z,97845.56
2023-05-11T13:36:47.077Z,97852.59
2023-05-11T13:39:13.609Z,97842.03
2023-05-11T13:41:40.117Z,97859.53
2023-05-11T13:44:08.824Z,97858.44
2023-05-11T13:46:35.760Z,97853.66
2023-05-11T13:49:03.708Z,97848.00
2023-05-11T13:51:30.950Z,97845.56
2023-05-11T13:53:59.212Z,97839.38
2023-05-11T13:56:26.019Z,97855.44
2023-05-11T13:58:52.521Z,97855.59
2023-05-11T14:01:19.016Z,97857.78
2023-05-11T14:03:45.548Z,97866.66
2023-05-11T14:06:12.520Z,97861.63
2023-05-11T14:08:38.903Z,97864.31
2023-05-11T14:11:05.502Z,97874.09
2023-05-11T14:13:31.954Z,97873.59
2023-05-11T14:15:58.480Z,97874.41
2023-05-11T14:18:25.966Z,97872.13
2023-05-11T14:20:53.815Z,97856.81
2023-05-11T14:23:20.232Z,97866.22
2023-05-11T14:25:46.680Z,97876.75
2023-05-11T14:28:13.181Z,97899.28
2023-05-11T14:30:39.635Z,97886.47
2023-05-11T14:33:06.204Z,97880.97
2023-05-11T14:35:32.812Z,97890.13
2023-05-11T14:37:59.273Z,97775.38
2023-05-11T14:40:25.751Z,97884.38
2023-05-11T14:42:52.306Z,97886.78
2023-05-11T14:45:18.892Z,97886.91
2023-05-11T14:47:45.608Z,97881.09
2023-05-11T14:50:12.129Z,97888.75
2023-05-11T14:52:38.564Z,97880.25
2023-05-11T14:55:05.674Z,97880.00
2023-05-11T14:57:32.856Z,97877.78
2023-05-11T15:00:00.658Z,97884.78
2023-05-11T15:02:28.350Z,97788.69
2023-05-11T15:04:55.417Z,97882.13
2023-05-11T15:07:21.845Z,97887.25
2023-05-11T15:09:48.359Z,97886.72
2023-05-11T15:12:14.852Z,97886.50
2023-05-11T15:14:41.245Z,97888.75
2023-05-11T15:17:07.725Z,97891.19
2023-05-11T15:19:34.170Z,97882.91
2023-05-11T15:22:00.702Z,97888.34
2023-05-11T15:24:27.135Z,97895.97
2023-05-11T15:26:53.554Z,97842.91
2023-05-11T15:29:20.710Z,97884.75
2023-05-11T15:31:47.343Z,97871.69
2023-05-11T15:34:15.200Z,97856.28
2023-05-11T15:36:41.734Z,97877.91
2023-05-11T15:39:09.185Z,97865.97
2023-05-11T15:41:35.749Z,97888.47
2023-05-11T15:44:02.411Z,97890.94
2023-05-11T15:46:30.277Z,97892.38
2023-05-11T15:48:59.079Z,97883.81
2023-05-11T15:51:26.564Z,97891.72
2023-05-11T15:53:54.368Z,97872.28
2023-05-11T15:56:22.469Z,97885.19
2023-05-11T15:58:48.887Z,97880.78
2023-05-11T16:01:15.367Z,97884.34
2023-05-11T16:03:41.895Z,97837.69
2023-05-11T16:06:08.448Z,97880.09
2023-05-11T16:08:34.846Z,97880.41
2023-05-11T16:11:01.286Z,97870.19
2023-05-11T16:13:27.675Z,97885.19
2023-05-11T16:15:54.233Z,97875.34
2023-05-11T16:18:20.808Z,97878.38
2023-05-11T16:20:47.296Z,97884.13
2023-05-11T16:23:13.820Z,97866.84
2023-05-11T16:25:40.277Z,97873.97
2023-05-11T16:28:06.818Z,97865.19
2023-05-11T16:30:33.318Z,97872.81
2023-05-11T16:32:59.818Z,97882.00
2023-05-11T16:35:26.837Z,97881.19
2023-05-11T16:37:53.994Z,97856.41
2023-05-11T16:40:21.571Z,97873.03
2023-05-11T16:42:48.857Z,97878.66
2023-05-11T16:45:16.441Z,97871.25
2023-05-11T16:47:45.340Z,97875.78
2023-05-11T16:50:15.974Z,97876.47
2023-05-11T16:52:42.680Z,97873.50
2023-05-11T16:55:09.789Z,97866.69
2023-05-11T16:57:36.356Z,97874.03
2023-05-11T17:00:03.083Z,97803.59
2023-05-11T17:02:29.727Z,97862.25
2023-05-11T17:04:56.277Z,97874.19
2023-05-11T17:07:22.838Z,97875.16
2023-05-11T17:09:52.060Z,97867.03
2023-05-11T17:12:18.553Z,97881.72
2023-05-11T17:14:44.974Z,97873.97
2023-05-11T17:17:11.518Z,97872.13
2023-05-11T17:19:38.347Z,97875.34
2023-05-11T17:22:07.292Z,97877.22
2023-05-11T17:24:33.833Z,97871.84
2023-05-11T17:27:00.627Z,97873.47
2023-05-11T17:29:27.101Z,97869.44
2023-05-11T17:31:53.652Z,97855.66
2023-05-11T17:34:22.095Z,97846.03
2023-05-11T17:36:50.283Z,97875.75
2023-05-11T17:39:17.056Z,97877.72
2023-05-11T17:41:43.550Z,97862.53
2023-05-11T17:44:10.060Z,97853.59
2023-05-11T17:46:36.639Z,97881.78
2023-05-11T17:49:03.945Z,97889.03
2023-05-11T17:51:31.235Z,97889.19
2023-05-11T17:53:57.705Z,97880.72
2023-05-11T17:56:24.199Z,97886.59
2023-05-11T17:58:51.475Z,97892.13
2023-05-11T18:01:18.187Z,97894.09
2023-05-11T18:03:45.291Z,97894.47
2023-05-11T18:06:11.810Z,97905.28
2023-05-11T18:08:38.335Z,97894.19
2023-05-11T18:11:05.200Z,97904.97
2023-05-11T18:13:31.698Z,97902.94
2023-05-11T18:15:59.343Z,97904.56
2023-05-11T18:18:26.002Z,97909.53
2023-05-11T18:20:52.554Z,97904.75
2023-05-11T18:23:18.968Z,97905.50
2023-05-11T18:25:45.403Z,97918.31
2023-05-11T18:28:11.807Z,97910.28
2023-05-11T18:30:38.649Z,97907.06
2023-05-11T18:33:05.297Z,97895.41
2023-05-11T18:35:31.763Z,97913.47
2023-05-11T18:37:59.550Z,97915.03
2023-05-11T18:40:26.165Z,97913.88
2023-05-11T18:42:53.842Z,97919.66
2023-05-11T18:45:20.350Z,97915.38
2023-05-11T18:47:47.136Z,97918.88
2023-05-11T18:50:13.762Z,97920.97
2023-05-11T18:52:40.399Z,97919.44
2023-05-11T18:55:07.358Z,97927.63
2023-05-11T18:57:34.396Z,97914.81
2023-05-11T19:00:01.244Z,97927.97
2023-05-11T19:02:27.988Z,97930.41
2023-05-11T19:04:54.599Z,97927.66
2023-05-11T19:07:21.036Z,97937.56
2023-05-11T19:09:47.462Z,97840.81
2023-05-11T19:12:13.973Z,97936.25
2023-05-11T19:14:40.474Z,97939.00
2023-05-11T19:17:07.006Z,97940.53
2023-05-11T19:19:34.181Z,97947.09
2023-05-11T19:22:00.772Z,97948.81
2023-05-11T19:24:28.090Z,97954.06
2023-05-11T19:27:05.944Z,97946.69
2023-05-11T19:29:34.849Z,97955.19
2023-05-11T19:32:01.512Z,97951.97
2023-05-11T19:34:28.046Z,97961.38
2023-05-11T19:36:54.502Z,97940.91
2023-05-11T19:39:20.885Z,97959.56
2023-05-11T19:41:47.635Z,97942.56
2023-05-11T19:44:14.142Z,97953.09
2023-05-11T19:46:46.186Z,97961.38
2023-05-11T19:49:13.840Z,97924.41
2023-05-11T19:51:40.647Z,97963.97
2023-05-11T19:54:07.223Z,97964.69
2023-05-11T19:56:33.910Z,97969.59
2023-05-11T19:59:00.632Z,97965.97
2023-05-11T20:01:27.186Z,97972.16
2023-05-11T20:03:53.964Z,97964.69
2023-05-11T20:06:20.541Z,97975.00
2023-05-11T20:08:48.808Z,97971.50
2023-05-11T20:11:15.576Z,97979.34
2023-05-11T20:13:43.863Z,97973.03
2023-05-11T20:16:10.678Z,97980.34
2023-05-11T20:18:37.276Z,97976.19
2023-05-11T20:21:04.262Z,97972.06
2023-05-11T20:23:30.695Z,97965.63
2023-05-11T20:25:57.156Z,97968.97
2023-05-11T20:28:27.047Z,97984.34
2023-05-11T20:30:55.819Z,97974.53
2023-05-11T20:35:53.319Z,97974.16
2023-05-11T20:38:20.366Z,97963.75
2023-05-11T20:40:46.841Z,97969.56
2023-05-11T20:43:14.748Z,97966.09
2023-05-11T20:45:41.914Z,97967.94
2023-05-11T20:48:08.613Z,97961.88
2023-05-11T20:50:35.175Z,97961.16
2023-05-11T20:53:01.641Z,97970.03
2023-05-11T20:55:28.207Z,97930.47
2023-05-11T20:57:54.700Z,97965.16
2023-05-11T21:00:21.478Z,97961.91
2023-05-11T21:02:48.267Z,97962.69
2023-05-11T21:05:14.957Z,97970.25
2023-05-11T21:07:41.363Z,97952.38
2023-05-11T21:10:10.475Z,97967.69
2023-05-11T21:12:36.979Z,97952.69
2023-05-11T21:15:03.727Z,97958.69
2023-05-11T21:17:30.296Z,97961.59
2023-05-11T21:19:56.798Z,97951.72
2023-05-11T21:22:23.260Z,97950.53
2023-05-11T21:24:49.765Z,97937.25
2023-05-11T21:27:16.237Z,97942.91
2023-05-11T21:29:42.700Z,97956.91
2023-05-11T21:32:09.123Z,97955.06
2023-05-11T21:34:35.791Z,97947.19
2023-05-11T21:37:03.152Z,97940.72
2023-05-11T21:39:29.552Z,97960.66
2023-05-11T21:41:56.691Z,97945.56
2023-05-11T21:44:23.215Z,97956.47
2023-05-11T21:46:50.408Z,97951.41
2023-05-11T21:49:17.118Z,97866.91
2023-05-11T21:51:43.628Z,97949.56
2023-05-11T21:54:10.202Z,97952.22
2023-05-11T21:56:36.892Z,97950.84
2023-05-11T21:59:03.613Z,97951.88
2023-05-11T22:01:30.185Z,97957.53
2023-05-11T22:03:57.071Z,97953.97
2023-05-11T22:06:23.667Z,97953.97
2023-05-11T22:08:50.542Z,97951.78
2023-05-11T22:11:17.240Z,97955.38
2023-05-11T22:13:44.541Z,97960.03
2023-05-11T22:16:11.014Z,97949.34
2023-05-11T22:18:37.595Z,97943.78
2023-05-11T22:21:04.413Z,97953.97
2023-05-11T22:23:31.765Z,97951.53
2023-05-11T22:25:58.407Z,97948.44
2023-05-11T22:28:24.847Z,97950.03
2023-05-11T22:30:51.221Z,97936.69
2023-05-11T22:33:17.710Z,97955.25
2023-05-11T22:35:44.297Z,97945.75
2023-05-11T22:38:10.728Z,97953.06
2023-05-11T22:40:37.324Z,97952.91
2023-05-11T22:43:03.740Z,97952.81
2023-05-11T22:45:30.210Z,97944.47
2023-05-11T22:47:56.903Z,97953.75
2023-05-11T22:50:23.383Z,97960.38
2023-05-11T22:52:49.900Z,97947.16
2023-05-11T22:55:16.401Z,97949.34
2023-05-11T22:57:43.833Z,97941.94
2023-05-11T23:00:10.829Z,97936.72
2023-05-11T23:02:37.986Z,97944.41
2023-05-11T23:05:04.995Z,97941.59
2023-05-11T23:07:31.566Z,97949.84
2023-05-11T23:09:58.040Z,97943.34
2023-05-11T23:12:24.690Z,97937.53
2023-05-11T23:14:51.142Z,97941.09
2023-05-11T23:17:17.848Z,97911.41
2023-05-11T23:19:44.375Z,97935.66
2023-05-11T23:22:10.966Z,97900.53
2023-05-11T23:24:37.453Z,97933.94
2023-05-11T23:27:04.202Z,97939.59
2023-05-11T23:29:30.633Z,97933.81
2023-05-11T23:31:57.122Z,97933.47
2023-05-11T23:34:23.593Z,97933.47
2023-05-11T23:36:50.157Z,97934.75
2023-05-11T23:39:16.587Z,97933.47
2023-05-11T23:41:43.013Z,97931.69
2023-05-11T23:44:09.821Z,97927.88
2023-05-11T23:46:36.368Z,97935.66
2023-05-11T23:49:03.205Z,97928.00
2023-05-11T23:51:29.744Z,97923.13
2023-05-11T23:53:56.152Z,97923.59
2023-05-11T23:56:22.658Z,97930.31
2023-05-11T23:58:50.418Z,97915.94
